Time;durP1;ratioP1;P1;durP2;ratioP2;P2;SDS_P1;SDS_P2;PMS_P1;PMS_P2;Temp;Humidity;BMP_temperature;BMP_pressure;BME280_temperature;BME280_humidity;BME280_pressure;Samples;Min_cycle;Max_cycle;Signal;HPM_P1;HPM_P2
2023/07/30 00:00:22;;;;;;;;;;;24.90;60.70;;;;;;5080512;28;19966;-34
2023/07/30 00:02:47;;;;;;;;;;;24.80;60.60;;;;;;5082932;28;20675;-34
2023/07/30 00:05:13;;;;;;;;;;;24.80;60.50;;;;;;5083009;28;19919;-34
2023/07/30 00:07:39;;;;;;;;;;;24.80;60.40;;;;;;5076141;28;19912;-34
2023/07/30 00:10:05;;;;;;;;;;;24.80;59.70;;;;;;5082545;28;19999;-34
2023/07/30 00:12:31;;;;;;;;;;;24.80;59.90;;;;;;5082549;28;19921;-34
2023/07/30 00:14:57;;;;;;;;;;;24.80;60.10;;;;;;5082720;28;19912;-34
2023/07/30 00:17:23;;;;;;;;;;;24.70;59.70;;;;;;5078008;28;19916;-34
2023/07/30 00:19:49;;;;;;;;;;;24.70;59.80;;;;;;5082524;28;19923;-34
2023/07/30 00:22:14;;;;;;;;;;;24.70;59.80;;;;;;5082784;28;19913;-34
2023/07/30 00:24:40;;;;;;;;;;;24.70;59.50;;;;;;5081624;28;20276;-34
2023/07/30 00:27:06;;;;;;;;;;;24.60;59.80;;;;;;5079675;28;19909;-34
2023/07/30 00:29:32;;;;;;;;;;;24.60;60.20;;;;;;5081805;28;19912;-34
2023/07/30 00:31:58;;;;;;;;;;;24.60;60.10;;;;;;5082525;28;19920;-34
2023/07/30 00:34:24;;;;;;;;;;;24.60;60.20;;;;;;5082019;28;19917;-34
2023/07/30 00:36:50;;;;;;;;;;;24.60;60.50;;;;;;5081833;28;20192;-34
2023/07/30 00:39:16;;;;;;;;;;;24.60;60.50;;;;;;5082428;28;19951;-34
2023/07/30 00:41:42;;;;;;;;;;;24.50;60.30;;;;;;5082160;28;19935;-34
2023/07/30 00:44:08;;;;;;;;;;;24.50;59.80;;;;;;5082550;28;19912;-34
2023/07/30 00:46:34;;;;;;;;;;;24.50;60.10;;;;;;5080768;28;19940;-34
2023/07/30 00:48:59;;;;;;;;;;;24.50;59.70;;;;;;5081906;28;19934;-35
2023/07/30 00:51:25;;;;;;;;;;;24.50;59.70;;;;;;5081295;28;19912;-34
2023/07/30 00:53:51;;;;;;;;;;;24.40;59.50;;;;;;5062469;28;19966;-36
2023/07/30 00:56:17;;;;;;;;;;;24.40;60.30;;;;;;5081819;28;19912;-35
2023/07/30 00:58:43;;;;;;;;;;;24.40;60.70;;;;;;5081770;28;20007;-34
2023/07/30 01:01:09;;;;;;;;;;;24.40;60.20;;;;;;5076894;28;19916;-35
2023/07/30 01:03:35;;;;;;;;;;;24.30;61.30;;;;;;5055792;28;19909;-36
2023/07/30 01:06:01;;;;;;;;;;;24.30;61.50;;;;;;5076277;28;20486;-34
2023/07/30 01:08:27;;;;;;;;;;;24.30;61.40;;;;;;5074304;28;19952;-37
2023/07/30 01:10:53;;;;;;;;;;;24.30;61.40;;;;;;5060879;28;20010;-34
2023/07/30 01:13:18;;;;;;;;;;;24.30;61.10;;;;;;5081229;28;19928;-34
2023/07/30 01:15:44;;;;;;;;;;;24.30;60.40;;;;;;5080192;28;19912;-35
2023/07/30 01:18:10;;;;;;;;;;;24.20;60.40;;;;;;5082269;28;19912;-34
2023/07/30 01:20:36;;;;;;;;;;;24.20;60.90;;;;;;5081159;28;20633;-34
2023/07/30 01:23:02;;;;;;;;;;;24.20;60.30;;;;;;5081672;28;19926;-34
2023/07/30 01:25:28;;;;;;;;;;;24.20;60.40;;;;;;5081098;28;19952;-34
2023/07/30 01:27:54;;;;;;;;;;;24.20;61.00;;;;;;5063587;28;19932;-35
2023/07/30 01:30:30;;;;;;;;;;;24.10;59.90;;;;;;5056644;28;19916;-34
2023/07/30 01:32:56;;;;;;;;;;;24.10;59.90;;;;;;5055218;28;20391;-34
2023/07/30 01:35:24;;;;;;;;;;;24.10;60.00;;;;;;5060436;28;19984;-35
2023/07/30 01:37:50;;;;;;;;;;;24.10;59.80;;;;;;5081203;28;19916;-35
2023/07/30 01:40:16;;;;;;;;;;;24.10;59.80;;;;;;5080777;28;19975;-34
2023/07/30 01:42:42;;;;;;;;;;;24.00;59.70;;;;;;5081702;28;19920;-34
2023/07/30 01:45:08;;;;;;;;;;;24.00;59.60;;;;;;5078461;28;19912;-34
2023/07/30 01:47:33;;;;;;;;;;;24.00;59.70;;;;;;5080354;28;19912;-35
2023/07/30 01:49:59;;;;;;;;;;;24.00;59.40;;;;;;5074995;28;19926;-34
2023/07/30 01:52:25;;;;;;;;;;;24.00;59.70;;;;;;5081819;28;19920;-35
2023/07/30 01:54:51;;;;;;;;;;;23.90;59.60;;;;;;5081703;28;19923;-34
2023/07/30 01:57:17;;;;;;;;;;;23.90;59.70;;;;;;5080302;28;19908;-34
2023/07/30 01:59:43;;;;;;;;;;;23.90;59.80;;;;;;5080997;28;19968;-34
2023/07/30 02:02:09;;;;;;;;;;;23.80;59.90;;;;;;5080252;28;19935;-35
2023/07/30 02:04:35;;;;;;;;;;;23.80;59.70;;;;;;5081511;28;19912;-34
2023/07/30 02:07:01;;;;;;;;;;;23.80;59.90;;;;;;5081337;28;19915;-34
2023/07/30 02:09:26;;;;;;;;;;;23.80;59.80;;;;;;5081638;28;19924;-34
2023/07/30 02:11:52;;;;;;;;;;;23.80;59.90;;;;;;5080321;28;19919;-34
2023/07/30 02:14:18;;;;;;;;;;;23.80;59.80;;;;;;5080609;28;19988;-34
2023/07/30 02:16:44;;;;;;;;;;;23.70;59.60;;;;;;5080599;28;19912;-34
2023/07/30 02:19:10;;;;;;;;;;;23.70;59.50;;;;;;5077325;28;19912;-34
2023/07/30 02:21:38;;;;;;;;;;;23.70;59.30;;;;;;5077194;28;19908;-34
2023/07/30 02:24:09;;;;;;;;;;;23.70;59.30;;;;;;5081158;28;19912;-34
2023/07/30 02:26:35;;;;;;;;;;;23.60;59.20;;;;;;5081362;28;19908;-34
2023/07/30 02:29:01;;;;;;;;;;;23.60;59.00;;;;;;5080056;28;19913;-35
2023/07/30 02:31:27;;;;;;;;;;;23.60;59.10;;;;;;5064405;28;19979;-34
2023/07/30 02:33:53;;;;;;;;;;;23.60;59.20;;;;;;5082805;28;19928;-34
2023/07/30 02:36:19;;;;;;;;;;;23.50;59.30;;;;;;5083458;28;19955;-34
2023/07/30 02:38:45;;;;;;;;;;;23.50;59.40;;;;;;5083925;28;19916;-34
2023/07/30 02:41:11;;;;;;;;;;;23.50;59.30;;;;;;5077384;28;19943;-34
2023/07/30 02:43:37;;;;;;;;;;;23.50;59.30;;;;;;5083876;28;19912;-34
2023/07/30 02:46:02;;;;;;;;;;;23.50;59.50;;;;;;5084094;28;19920;-34
2023/07/30 02:48:28;;;;;;;;;;;23.50;59.70;;;;;;5084451;28;20333;-34
2023/07/30 02:50:54;;;;;;;;;;;23.40;59.40;;;;;;5083454;28;19934;-34
2023/07/30 02:53:20;;;;;;;;;;;23.40;59.50;;;;;;5083922;28;19920;-34
2023/07/30 02:55:46;;;;;;;;;;;23.40;59.80;;;;;;5084066;28;19925;-34
2023/07/30 02:58:12;;;;;;;;;;;23.30;59.80;;;;;;5084071;28;19912;-34
2023/07/30 03:00:38;;;;;;;;;;;23.30;59.80;;;;;;5081611;28;19983;-34
2023/07/30 03:03:04;;;;;;;;;;;23.30;59.50;;;;;;5081172;28;19912;-34
2023/07/30 03:05:30;;;;;;;;;;;23.30;59.60;;;;;;5082959;28;19912;-34
2023/07/30 03:07:56;;;;;;;;;;;23.30;59.70;;;;;;5075596;28;19912;-34
2023/07/30 03:10:22;;;;;;;;;;;23.20;59.80;;;;;;5084152;28;19987;-34
2023/07/30 03:12:47;;;;;;;;;;;23.20;60.20;;;;;;5083367;28;19920;-34
2023/07/30 03:15:13;;;;;;;;;;;23.20;59.90;;;;;;5083709;28;20792;-34
2023/07/30 03:17:39;;;;;;;;;;;23.20;60.00;;;;;;5083803;28;19969;-34
2023/07/30 03:20:05;;;;;;;;;;;23.10;59.70;;;;;;5083301;28;19912;-34
2023/07/30 03:22:31;;;;;;;;;;;23.10;59.80;;;;;;5082858;28;19923;-34
2023/07/30 03:24:57;;;;;;;;;;;23.10;60.00;;;;;;5083703;28;19912;-34
2023/07/30 03:27:23;;;;;;;;;;;23.10;59.90;;;;;;5076060;28;19924;-35
2023/07/30 03:29:49;;;;;;;;;;;23.10;60.20;;;;;;5083746;28;19923;-35
2023/07/30 03:32:15;;;;;;;;;;;23.10;59.70;;;;;;5083203;28;20427;-35
2023/07/30 03:34:41;;;;;;;;;;;23.00;59.40;;;;;;5083611;28;20053;-35
2023/07/30 03:37:07;;;;;;;;;;;23.00;59.60;;;;;;5080214;28;19913;-35
2023/07/30 03:39:32;;;;;;;;;;;23.00;59.50;;;;;;5078687;28;19918;-35
2023/07/30 03:41:58;;;;;;;;;;;23.00;59.40;;;;;;5082737;28;19934;-35
2023/07/30 03:44:24;;;;;;;;;;;22.90;59.40;;;;;;5083979;28;19916;-35
2023/07/30 03:46:50;;;;;;;;;;;22.90;59.40;;;;;;5082605;28;19916;-35
2023/07/30 03:49:16;;;;;;;;;;;22.90;59.30;;;;;;5082950;28;19914;-35
2023/07/30 03:51:42;;;;;;;;;;;22.80;59.50;;;;;;5075006;28;19916;-35
2023/07/30 03:54:08;;;;;;;;;;;22.80;59.90;;;;;;5080015;28;19920;-35
2023/07/30 03:56:34;;;;;;;;;;;22.80;59.80;;;;;;5082494;28;19935;-34
2023/07/30 03:58:59;;;;;;;;;;;22.80;59.80;;;;;;5083324;28;19919;-34
2023/07/30 04:01:25;;;;;;;;;;;22.80;60.10;;;;;;5082482;28;19916;-34
2023/07/30 04:03:51;;;;;;;;;;;22.80;60.00;;;;;;5083132;28;19916;-34
2023/07/30 04:06:17;;;;;;;;;;;22.70;60.00;;;;;;5079829;28;19912;-35
2023/07/30 04:08:43;;;;;;;;;;;22.70;60.30;;;;;;5082596;28;19912;-34
2023/07/30 04:11:09;;;;;;;;;;;22.70;59.80;;;;;;5082209;28;19912;-34
2023/07/30 04:13:36;;;;;;;;;;;22.70;59.80;;;;;;5081738;28;19930;-34
2023/07/30 04:16:03;;;;;;;;;;;22.70;59.50;;;;;;5077182;28;19936;-35
2023/07/30 04:18:28;;;;;;;;;;;22.70;59.40;;;;;;5080179;28;19912;-33
2023/07/30 04:20:55;;;;;;;;;;;22.60;59.30;;;;;;5082507;28;19939;-35
2023/07/30 04:23:21;;;;;;;;;;;22.60;59.30;;;;;;5081739;28;19941;-33
2023/07/30 04:25:50;;;;;;;;;;;22.60;59.90;;;;;;5081742;28;20019;-34
2023/07/30 04:28:16;;;;;;;;;;;22.60;59.30;;;;;;5081525;28;19955;-34
2023/07/30 04:30:42;;;;;;;;;;;22.50;59.20;;;;;;5082390;28;19916;-34
2023/07/30 04:33:08;;;;;;;;;;;22.50;59.30;;;;;;5081987;28;19920;-34
2023/07/30 04:35:34;;;;;;;;;;;22.50;59.50;;;;;;5082539;28;19912;-33
2023/07/30 04:37:59;;;;;;;;;;;22.50;59.60;;;;;;5081894;28;19912;-33
2023/07/30 04:40:25;;;;;;;;;;;22.50;59.80;;;;;;5082776;28;19916;-33
2023/07/30 04:42:51;;;;;;;;;;;22.40;59.70;;;;;;5081638;28;19916;-33
2023/07/30 04:45:17;;;;;;;;;;;22.40;60.20;;;;;;5082503;28;19920;-34
2023/07/30 04:47:43;;;;;;;;;;;22.40;60.30;;;;;;5077512;28;19912;-33
2023/07/30 04:50:09;;;;;;;;;;;22.40;60.30;;;;;;5082151;28;20426;-33
2023/07/30 04:52:35;;;;;;;;;;;22.40;60.00;;;;;;5081115;28;19920;-33
2023/07/30 04:55:01;;;;;;;;;;;22.30;59.60;;;;;;5082232;28;20506;-34
2023/07/30 04:57:27;;;;;;;;;;;22.30;59.40;;;;;;5081843;28;19916;-34
2023/07/30 04:59:52;;;;;;;;;;;22.30;59.40;;;;;;5073746;28;19912;-33
2023/07/30 05:02:18;;;;;;;;;;;22.30;59.30;;;;;;5080765;28;19995;-33
2023/07/30 05:04:44;;;;;;;;;;;22.30;59.30;;;;;;5081937;28;19912;-34
2023/07/30 05:07:10;;;;;;;;;;;22.20;59.10;;;;;;5080239;28;20731;-34
2023/07/30 05:09:37;;;;;;;;;;;22.20;59.10;;;;;;5081696;28;20312;-34
2023/07/30 05:12:03;;;;;;;;;;;22.20;59.20;;;;;;5075359;28;19920;-33
2023/07/30 05:14:29;;;;;;;;;;;22.10;59.10;;;;;;5081538;28;19920;-33
2023/07/30 05:16:55;;;;;;;;;;;22.10;59.30;;;;;;5081213;28;19954;-34
2023/07/30 05:19:21;;;;;;;;;;;22.10;59.50;;;;;;5080899;28;19920;-34
2023/07/30 05:21:47;;;;;;;;;;;22.10;59.60;;;;;;5081201;28;19935;-34
2023/07/30 05:24:12;;;;;;;;;;;22.10;59.80;;;;;;5082454;28;19912;-33
2023/07/30 05:26:38;;;;;;;;;;;22.10;59.80;;;;;;5081464;28;20027;-33
2023/07/30 05:29:04;;;;;;;;;;;22.00;59.90;;;;;;5081799;28;19923;-34
2023/07/30 05:31:30;;;;;;;;;;;22.00;60.00;;;;;;5078426;28;19920;-34
2023/07/30 05:33:56;;;;;;;;;;;22.00;59.80;;;;;;5081893;28;19916;-34
2023/07/30 05:36:22;;;;;;;;;;;22.00;59.50;;;;;;5080286;28;19916;-34
2023/07/30 05:38:48;;;;;;;;;;;21.90;59.30;;;;;;5080910;28;19912;-33
2023/07/30 05:41:14;;;;;;;;;;;21.90;59.20;;;;;;5081675;28;19909;-34
2023/07/30 05:43:39;;;;;;;;;;;21.90;59.30;;;;;;5076795;28;19908;-34
2023/07/30 05:46:05;;;;;;;;;;;21.90;59.40;;;;;;5077810;28;19916;-35
2023/07/30 05:48:31;;;;;;;;;;;21.80;59.20;;;;;;5077662;28;19916;-34
2023/07/30 05:50:57;;;;;;;;;;;21.80;59.30;;;;;;5080818;28;19908;-34
2023/07/30 05:53:23;;;;;;;;;;;21.80;59.10;;;;;;5079605;28;19921;-34
2023/07/30 05:55:49;;;;;;;;;;;21.80;59.20;;;;;;5081073;28;19909;-34
2023/07/30 05:58:15;;;;;;;;;;;21.80;59.40;;;;;;5080779;28;19908;-34
2023/07/30 06:00:41;;;;;;;;;;;21.70;59.70;;;;;;5079927;28;19919;-34
2023/07/30 06:03:08;;;;;;;;;;;21.70;60.00;;;;;;5085013;28;19908;-34
2023/07/30 06:05:38;;;;;;;;;;;21.70;60.00;;;;;;5084382;28;19964;-34
2023/07/30 06:08:04;;;;;;;;;;;21.70;60.00;;;;;;5071954;28;19913;-34
2023/07/30 06:10:30;;;;;;;;;;;21.70;60.40;;;;;;5073776;28;19946;-34
2023/07/30 06:12:56;;;;;;;;;;;21.60;60.10;;;;;;5084373;28;19916;-34
2023/07/30 06:15:22;;;;;;;;;;;21.60;60.30;;;;;;5084382;28;19912;-34
2023/07/30 06:17:48;;;;;;;;;;;21.60;60.10;;;;;;5084342;28;19912;-34
2023/07/30 06:20:13;;;;;;;;;;;21.60;59.70;;;;;;5084699;28;19912;-34
2023/07/30 06:22:39;;;;;;;;;;;21.60;59.60;;;;;;5083497;28;20380;-34
2023/07/30 06:25:05;;;;;;;;;;;21.50;59.50;;;;;;5084854;28;20012;-34
2023/07/30 06:27:31;;;;;;;;;;;21.50;59.30;;;;;;5084363;28;19920;-34
2023/07/30 06:29:57;;;;;;;;;;;21.50;59.20;;;;;;5084709;28;19912;-34
2023/07/30 06:32:23;;;;;;;;;;;21.50;59.40;;;;;;5084205;28;20007;-34
2023/07/30 06:34:50;;;;;;;;;;;21.40;59.20;;;;;;5084656;28;20019;-34
2023/07/30 06:37:15;;;;;;;;;;;21.40;59.50;;;;;;5084151;28;19916;-34
2023/07/30 06:39:41;;;;;;;;;;;21.40;59.50;;;;;;5084478;28;19916;-34
2023/07/30 06:42:08;;;;;;;;;;;21.40;59.80;;;;;;5084009;28;19912;-34
2023/07/30 06:44:34;;;;;;;;;;;21.30;60.00;;;;;;5081630;28;19912;-34
2023/07/30 06:47:01;;;;;;;;;;;21.30;60.20;;;;;;5083604;28;19934;-34
2023/07/30 06:49:26;;;;;;;;;;;21.30;60.30;;;;;;5084738;28;19912;-34
2023/07/30 06:51:52;;;;;;;;;;;21.30;59.80;;;;;;5084000;28;19912;-34
2023/07/30 06:54:18;;;;;;;;;;;21.30;59.80;;;;;;5083974;28;19955;-34
2023/07/30 06:56:44;;;;;;;;;;;21.20;59.80;;;;;;5077077;28;20012;-34
2023/07/30 06:59:10;;;;;;;;;;;21.20;59.50;;;;;;5084419;28;19915;-34
2023/07/30 07:01:36;;;;;;;;;;;21.20;59.50;;;;;;5082020;28;19920;-34
2023/07/30 07:04:02;;;;;;;;;;;21.20;59.50;;;;;;5084417;28;19923;-34
2023/07/30 07:06:28;;;;;;;;;;;21.10;59.50;;;;;;5083259;28;19983;-34
2023/07/30 07:08:53;;;;;;;;;;;21.10;59.40;;;;;;5077844;28;20038;-34
2023/07/30 07:11:19;;;;;;;;;;;21.10;59.60;;;;;;5084033;28;19920;-34
2023/07/30 07:13:45;;;;;;;;;;;21.10;59.80;;;;;;5082412;28;19921;-34
2023/07/30 07:16:11;;;;;;;;;;;21.10;60.10;;;;;;5079935;28;19909;-34
2023/07/30 07:18:57;;;;;;;;;;;21.00;60.50;;;;;;5021261;28;19936;-34
2023/07/30 07:21:23;;;;;;;;;;;21.00;60.60;;;;;;5021093;28;19913;-34
2023/07/30 07:23:49;;;;;;;;;;;21.00;60.50;;;;;;5021319;28;19952;-34
2023/07/30 07:26:15;;;;;;;;;;;21.00;60.70;;;;;;5020928;28;19968;-34
2023/07/30 07:28:41;;;;;;;;;;;21.00;60.60;;;;;;5021309;28;19913;-34
2023/07/30 07:31:06;;;;;;;;;;;20.90;60.50;;;;;;5021121;28;19909;-34
2023/07/30 07:33:32;;;;;;;;;;;20.90;60.70;;;;;;5021088;28;20008;-34
2023/07/30 07:36:05;;;;;;;;;;;20.90;60.90;;;;;;5021047;28;19924;-34
2023/07/30 07:38:31;;;;;;;;;;;20.90;60.90;;;;;;5020581;28;19909;-34
2023/07/30 07:40:57;;;;;;;;;;;20.90;60.70;;;;;;5020716;28;19913;-33
2023/07/30 07:43:23;;;;;;;;;;;20.80;60.70;;;;;;5017910;28;19920;-34
2023/07/30 07:45:49;;;;;;;;;;;20.80;60.60;;;;;;5019977;28;19913;-34
2023/07/30 07:48:14;;;;;;;;;;;20.80;60.60;;;;;;5020723;28;19913;-34
2023/07/30 07:50:40;;;;;;;;;;;20.80;61.00;;;;;;5019889;28;20623;-34
2023/07/30 07:53:06;;;;;;;;;;;20.80;61.70;;;;;;5020708;28;19925;-34
2023/07/30 07:55:32;;;;;;;;;;;20.70;60.60;;;;;;5037774;28;20019;-34
2023/07/30 07:57:58;;;;;;;;;;;20.70;60.90;;;;;;5082757;28;20531;-34
2023/07/30 08:00:24;;;;;;;;;;;20.70;60.90;;;;;;5082755;28;19947;-34
2023/07/30 08:02:50;;;;;;;;;;;20.70;60.60;;;;;;5082900;28;19969;-34
2023/07/30 08:05:16;;;;;;;;;;;20.70;60.70;;;;;;5082184;28;19912;-34
2023/07/30 08:07:43;;;;;;;;;;;20.70;60.80;;;;;;5081414;28;19959;-34
2023/07/30 08:10:10;;;;;;;;;;;20.60;60.40;;;;;;5082801;28;19958;-34
2023/07/30 08:12:36;;;;;;;;;;;20.60;60.20;;;;;;5079983;28;19980;-33
2023/07/30 08:15:02;;;;;;;;;;;20.60;59.90;;;;;;5081926;28;19952;-34
2023/07/30 08:17:29;;;;;;;;;;;20.60;60.00;;;;;;5082381;28;19912;-33
2023/07/30 08:19:55;;;;;;;;;;;20.60;59.70;;;;;;5082212;28;19912;-34
2023/07/30 08:22:20;;;;;;;;;;;20.50;59.60;;;;;;5082934;28;19943;-39
2023/07/30 08:24:46;;;;;;;;;;;20.50;59.90;;;;;;5080255;28;19979;-33
2023/07/30 08:27:12;;;;;;;;;;;20.50;59.60;;;;;;5082325;28;19912;-34
2023/07/30 08:29:38;;;;;;;;;;;20.50;59.80;;;;;;5079421;28;20376;-34
2023/07/30 08:32:04;;;;;;;;;;;20.50;60.20;;;;;;5082352;28;20000;-34
2023/07/30 08:34:30;;;;;;;;;;;20.40;60.60;;;;;;5082614;28;19920;-33
2023/07/30 08:36:56;;;;;;;;;;;20.40;60.50;;;;;;5080134;28;19908;-34
2023/07/30 08:39:22;;;;;;;;;;;20.40;60.80;;;;;;5077858;28;19918;-34
2023/07/30 08:41:48;;;;;;;;;;;20.40;60.80;;;;;;5081805;28;19919;-34
2023/07/30 08:44:13;;;;;;;;;;;20.40;60.80;;;;;;5082913;28;19912;-34
2023/07/30 08:46:39;;;;;;;;;;;20.40;60.90;;;;;;5063971;28;19913;-34
2023/07/30 08:49:05;;;;;;;;;;;20.30;61.00;;;;;;5078384;28;19912;-34
2023/07/30 08:51:31;;;;;;;;;;;20.30;60.70;;;;;;5081901;28;20002;-34
2023/07/30 08:53:57;;;;;;;;;;;20.30;60.60;;;;;;5081203;28;19988;-34
2023/07/30 08:56:23;;;;;;;;;;;20.30;60.50;;;;;;5081861;28;20416;-34
2023/07/30 08:58:51;;;;;;;;;;;20.20;60.60;;;;;;5081975;28;19934;-34
2023/07/30 09:01:16;;;;;;;;;;;20.20;60.30;;;;;;5064295;28;19912;-34
2023/07/30 09:03:42;;;;;;;;;;;20.20;60.10;;;;;;5063945;28;19919;-34
2023/07/30 09:06:08;;;;;;;;;;;20.20;60.40;;;;;;5080967;28;20049;-34
2023/07/30 09:08:34;;;;;;;;;;;20.20;60.10;;;;;;5081310;28;19920;-34
2023/07/30 09:11:07;;;;;;;;;;;20.10;60.20;;;;;;5073025;28;19980;-34
2023/07/30 09:13:36;;;;;;;;;;;20.10;60.10;;;;;;5060010;28;19923;-34
2023/07/30 09:16:04;;;;;;;;;;;20.10;60.70;;;;;;5074942;28;19920;-34
2023/07/30 09:18:30;;;;;;;;;;;20.10;60.90;;;;;;5063750;28;19908;-34
2023/07/30 09:20:56;;;;;;;;;;;20.10;60.90;;;;;;5063523;28;19912;-34
2023/07/30 09:23:22;;;;;;;;;;;20.10;61.00;;;;;;5082309;28;19916;-34
2023/07/30 09:25:49;;;;;;;;;;;20.00;61.10;;;;;;5081430;28;19912;-34
2023/07/30 09:28:15;;;;;;;;;;;20.00;61.10;;;;;;5081614;28;19963;-34
2023/07/30 09:30:40;;;;;;;;;;;20.00;61.00;;;;;;5078634;28;19909;-34
2023/07/30 09:33:06;;;;;;;;;;;20.00;61.00;;;;;;5081831;28;19920;-34
2023/07/30 09:35:32;;;;;;;;;;;20.00;60.90;;;;;;5081316;28;19976;-34
2023/07/30 09:37:59;;;;;;;;;;;20.00;60.50;;;;;;5085223;28;20503;-33
2023/07/30 09:40:32;;;;;;;;;;;19.90;60.30;;;;;;5085338;28;20508;-34
2023/07/30 09:42:58;;;;;;;;;;;19.90;60.30;;;;;;5085726;28;19913;-34
2023/07/30 09:45:24;;;;;;;;;;;19.90;60.30;;;;;;5083944;28;19909;-34
2023/07/30 09:47:51;;;;;;;;;;;19.90;60.30;;;;;;5085649;28;19919;-34
2023/07/30 09:50:17;;;;;;;;;;;19.90;60.40;;;;;;5082667;28;19969;-34
2023/07/30 09:52:45;;;;;;;;;;;19.80;60.50;;;;;;5085707;28;19975;-34
2023/07/30 09:55:11;;;;;;;;;;;19.80;60.00;;;;;;5084851;28;19924;-34
2023/07/30 09:57:38;;;;;;;;;;;19.80;60.50;;;;;;5074470;28;19916;-34
2023/07/30 10:00:05;;;;;;;;;;;19.80;61.90;;;;;;5075315;28;19998;-34
2023/07/30 10:02:32;;;;;;;;;;;19.80;62.40;;;;;;5084705;28;19908;-34
2023/07/30 10:04:59;;;;;;;;;;;19.70;62.80;;;;;;5085930;28;19947;-34
2023/07/30 10:07:25;;;;;;;;;;;19.70;63.10;;;;;;5077916;28;19905;-34
2023/07/30 10:09:51;;;;;;;;;;;19.70;63.30;;;;;;5084062;28;19927;-33
2023/07/30 10:12:18;;;;;;;;;;;19.70;63.50;;;;;;5084913;28;19912;-34
2023/07/30 10:14:44;;;;;;;;;;;19.70;63.80;;;;;;5085105;28;19942;-34
2023/07/30 10:17:10;;;;;;;;;;;19.70;64.10;;;;;;5084858;28;19909;-34
2023/07/30 10:19:36;;;;;;;;;;;19.70;64.30;;;;;;5066945;28;19908;-34
2023/07/30 10:22:11;;;;;;;;;;;19.80;64.70;;;;;;5066687;28;19972;-34
2023/07/30 10:24:37;;;;;;;;;;;19.70;64.70;;;;;;5083004;28;19912;-34
2023/07/30 10:27:07;;;;;;;;;;;19.80;65.10;;;;;;5084902;28;19958;-34
2023/07/30 10:29:34;;;;;;;;;;;19.80;65.30;;;;;;5084865;28;19938;-34
2023/07/30 10:32:00;;;;;;;;;;;19.80;65.50;;;;;;5084152;28;19954;-34
2023/07/30 10:34:27;;;;;;;;;;;19.80;65.80;;;;;;5084721;28;19983;-34
2023/07/30 10:36:55;;;;;;;;;;;19.80;66.00;;;;;;5083253;28;19912;-34
2023/07/30 10:39:24;;;;;;;;;;;19.80;66.20;;;;;;5080125;28;19920;-34
2023/07/30 10:41:50;;;;;;;;;;;19.90;66.50;;;;;;5084090;28;19916;-34
2023/07/30 10:44:24;;;;;;;;;;;19.80;66.60;;;;;;5084705;28;19909;-34
2023/07/30 10:46:50;;;;;;;;;;;19.90;66.70;;;;;;5083895;28;19920;-34
2023/07/30 10:49:16;;;;;;;;;;;19.90;66.90;;;;;;5083832;28;19944;-34
2023/07/30 10:51:42;;;;;;;;;;;19.90;67.10;;;;;;5084489;28;19924;-34
2023/07/30 10:54:10;;;;;;;;;;;19.90;67.30;;;;;;5083498;28;19927;-34
2023/07/30 10:56:37;;;;;;;;;;;19.90;67.40;;;;;;5083172;28;19972;-33
2023/07/30 10:59:05;;;;;;;;;;;20.00;67.60;;;;;;5081169;28;20018;-34
2023/07/30 11:01:31;;;;;;;;;;;20.00;67.60;;;;;;5084731;28;19912;-34
2023/07/30 11:03:57;;;;;;;;;;;20.00;67.80;;;;;;5083367;28;19979;-34
2023/07/30 11:06:23;;;;;;;;;;;20.00;67.90;;;;;;5084000;28;19976;-34
2023/07/30 11:08:49;;;;;;;;;;;20.00;67.90;;;;;;5083307;28;19927;-34
2023/07/30 11:11:15;;;;;;;;;;;20.00;68.00;;;;;;5084496;28;19909;-34
2023/07/30 11:13:42;;;;;;;;;;;20.10;68.10;;;;;;5082925;28;19975;-34
2023/07/30 11:16:08;;;;;;;;;;;20.10;68.20;;;;;;5066084;28;20444;-34
2023/07/30 11:18:34;;;;;;;;;;;20.10;68.30;;;;;;5083376;28;19912;-34
2023/07/30 11:21:18;;;;;;;;;;;20.10;68.20;;;;;;5079519;28;19983;-34
2023/07/30 11:23:44;;;;;;;;;;;20.10;68.30;;;;;;5081486;28;20444;-33
2023/07/30 11:26:17;;;;;;;;;;;20.10;68.40;;;;;;5083928;28;20300;-34
2023/07/30 11:28:43;;;;;;;;;;;20.10;68.40;;;;;;5078733;28;20513;-34
2023/07/30 11:31:13;;;;;;;;;;;20.20;68.60;;;;;;5083914;28;19983;-34
2023/07/30 11:33:43;;;;;;;;;;;20.20;68.70;;;;;;5081228;28;20373;-34
2023/07/30 11:36:21;;;;;;;;;;;20.20;68.70;;;;;;5084045;28;19920;-34
2023/07/30 11:38:47;;;;;;;;;;;20.20;68.80;;;;;;5065446;28;19908;-34
2023/07/30 11:41:13;;;;;;;;;;;20.20;68.80;;;;;;5083678;28;19919;-34
2023/07/30 11:43:39;;;;;;;;;;;20.20;68.80;;;;;;5083252;28;19912;-34
2023/07/30 11:46:25;;;;;;;;;;;20.30;68.80;;;;;;5011312;28;19913;-34
2023/07/30 11:48:52;;;;;;;;;;;20.30;68.90;;;;;;5004770;28;19981;-35
2023/07/30 11:51:21;;;;;;;;;;;20.30;68.90;;;;;;5001635;28;19981;-34
2023/07/30 11:53:54;;;;;;;;;;;20.30;69.70;;;;;;5003042;28;19917;-34
2023/07/30 11:56:26;;;;;;;;;;;20.30;69.00;;;;;;5000103;28;19938;-34
2023/07/30 11:58:54;;;;;;;;;;;20.30;69.10;;;;;;5003602;28;20077;-34
2023/07/30 12:01:20;;;;;;;;;;;20.40;69.20;;;;;;4999619;28;19916;-34
2023/07/30 12:03:46;;;;;;;;;;;20.40;69.10;;;;;;5002202;28;19993;-34
2023/07/30 12:06:12;;;;;;;;;;;20.40;69.20;;;;;;5002058;28;20478;-34
2023/07/30 12:08:38;;;;;;;;;;;20.40;69.20;;;;;;4985551;28;19910;-34
2023/07/30 12:11:04;;;;;;;;;;;20.40;69.20;;;;;;4997917;28;19913;-34
2023/07/30 12:13:30;;;;;;;;;;;20.40;69.30;;;;;;5004337;28;19955;-34
2023/07/30 12:15:56;;;;;;;;;;;20.40;70.10;;;;;;5006711;28;19909;-34
2023/07/30 12:18:25;;;;;;;;;;;20.40;69.40;;;;;;5013231;28;19910;-34
2023/07/30 12:20:51;;;;;;;;;;;20.40;69.50;;;;;;5000785;28;19918;-34
2023/07/30 12:23:17;;;;;;;;;;;20.50;69.90;;;;;;5038141;28;19967;-34
2023/07/30 12:25:43;;;;;;;;;;;20.50;69.90;;;;;;5079806;28;19939;-34
2023/07/30 12:28:09;;;;;;;;;;;20.50;69.90;;;;;;5081859;28;19934;-34
2023/07/30 12:30:36;;;;;;;;;;;20.50;69.90;;;;;;5060530;28;19908;-34
2023/07/30 12:33:03;;;;;;;;;;;20.50;69.90;;;;;;5082393;28;19928;-34
2023/07/30 12:35:29;;;;;;;;;;;20.50;70.00;;;;;;5081179;28;19993;-34
2023/07/30 12:37:55;;;;;;;;;;;20.50;70.00;;;;;;5081481;28;20001;-34
2023/07/30 12:40:21;;;;;;;;;;;20.60;70.10;;;;;;5082076;28;20284;-39
2023/07/30 12:42:47;;;;;;;;;;;20.60;70.10;;;;;;5080292;28;19939;-34
2023/07/30 12:45:12;;;;;;;;;;;20.60;70.30;;;;;;5082043;28;19966;-34
2023/07/30 12:47:38;;;;;;;;;;;20.60;70.40;;;;;;5078729;28;19908;-34
2023/07/30 12:50:04;;;;;;;;;;;20.60;70.40;;;;;;5074593;28;19912;-34
2023/07/30 12:52:31;;;;;;;;;;;20.60;70.40;;;;;;5080328;28;19916;-35
2023/07/30 12:54:57;;;;;;;;;;;20.70;70.60;;;;;;5077311;28;19920;-34
2023/07/30 12:57:23;;;;;;;;;;;20.70;70.70;;;;;;5081683;28;19912;-34
2023/07/30 12:59:49;;;;;;;;;;;20.70;70.80;;;;;;5081060;28;19908;-34
2023/07/30 13:02:15;;;;;;;;;;;20.70;70.90;;;;;;5077244;28;20629;-34
2023/07/30 13:04:41;;;;;;;;;;;20.70;71.00;;;;;;5077415;28;19923;-35
2023/07/30 13:07:07;;;;;;;;;;;20.70;71.10;;;;;;5081709;28;19919;-34
2023/07/30 13:09:32;;;;;;;;;;;20.70;71.20;;;;;;5072007;28;19928;-34
2023/07/30 13:11:58;;;;;;;;;;;20.70;71.40;;;;;;5079336;28;19912;-34
2023/07/30 13:14:24;;;;;;;;;;;20.80;71.50;;;;;;5082295;28;19924;-34
2023/07/30 13:16:50;;;;;;;;;;;20.80;71.60;;;;;;5080684;28;19918;-34
2023/07/30 13:19:16;;;;;;;;;;;20.80;71.80;;;;;;5082540;28;19986;-34
2023/07/30 13:21:42;;;;;;;;;;;20.80;71.80;;;;;;5081397;28;19931;-34
2023/07/30 13:24:08;;;;;;;;;;;20.80;71.90;;;;;;5082365;28;19913;-34
2023/07/30 13:26:35;;;;;;;;;;;20.90;72.10;;;;;;5080940;28;19955;-34
2023/07/30 13:29:00;;;;;;;;;;;20.90;72.20;;;;;;5073829;28;19912;-34
2023/07/30 13:31:26;;;;;;;;;;;20.90;72.40;;;;;;5080772;28;19972;-34
2023/07/30 13:33:52;;;;;;;;;;;20.90;72.40;;;;;;5081664;28;20900;-33
2023/07/30 13:36:18;;;;;;;;;;;20.90;72.50;;;;;;5081511;28;19955;-34
2023/07/30 13:38:44;;;;;;;;;;;21.00;72.70;;;;;;5073801;28;19916;-35
2023/07/30 13:41:10;;;;;;;;;;;20.90;73.10;;;;;;5081072;28;19908;-34
2023/07/30 13:43:36;;;;;;;;;;;21.00;73.40;;;;;;5080599;28;19908;-34
2023/07/30 13:46:02;;;;;;;;;;;21.00;73.70;;;;;;5081295;28;19916;-34
2023/07/30 13:48:27;;;;;;;;;;;21.00;73.70;;;;;;5080276;28;19913;-35
2023/07/30 13:50:53;;;;;;;;;;;21.10;74.60;;;;;;5081754;28;20376;-34
2023/07/30 13:53:19;;;;;;;;;;;21.10;73.90;;;;;;5075440;28;19920;-34
2023/07/30 13:55:45;;;;;;;;;;;21.10;73.90;;;;;;5081575;28;19934;-34
2023/07/30 13:58:11;;;;;;;;;;;21.20;73.90;;;;;;5077217;28;19984;-34
2023/07/30 14:00:39;;;;;;;;;;;21.20;73.90;;;;;;5077618;28;20027;-34
2023/07/30 14:03:05;;;;;;;;;;;21.20;74.00;;;;;;5068103;28;20373;-34
2023/07/30 14:05:31;;;;;;;;;;;21.20;74.00;;;;;;5080850;28;19915;-34
2023/07/30 14:07:56;;;;;;;;;;;21.30;74.10;;;;;;5079783;28;19913;-34
2023/07/30 14:10:23;;;;;;;;;;;21.30;74.10;;;;;;5078788;28;19924;-34